createdAt,value
2023-01-17T00:00:15.365Z,4.55
2023-01-17T00:01:15.277Z,4.55
2023-01-17T00:02:15.258Z,4.52
2023-01-17T00:03:15.249Z,4.49
2023-01-17T00:04:15.231Z,4.49
2023-01-17T00:05:15.240Z,4.49
2023-01-17T00:06:15.201Z,4.49
2023-01-17T00:07:15.196Z,4.48
2023-01-17T00:08:15.182Z,4.49
2023-01-17T00:09:15.162Z,4.48
2023-01-17T00:10:15.222Z,4.49
2023-01-17T00:11:15.134Z,4.48
2023-01-17T00:12:15.113Z,4.45
2023-01-17T00:13:15.103Z,4.48
2023-01-17T00:14:15.093Z,4.45
2023-01-17T00:15:15.082Z,4.48
2023-01-17T00:16:18.105Z,4.48
2023-01-17T00:17:18.079Z,4.49
2023-01-17T00:18:15.033Z,4.45
2023-01-17T00:19:15.016Z,4.45
2023-01-17T00:20:15.005Z,4.44
2023-01-17T00:21:15.016Z,4.44
2023-01-17T00:22:14.983Z,4.44
2023-01-17T00:23:14.965Z,4.44
2023-01-17T00:24:14.960Z,4.42
2023-01-17T00:25:14.943Z,4.42
2023-01-17T00:26:14.958Z,4.44
2023-01-17T00:27:14.919Z,4.44
2023-01-17T00:28:14.898Z,4.42
2023-01-17T00:29:14.886Z,4.44
2023-01-17T00:30:14.870Z,4.45
2023-01-17T00:31:14.913Z,4.44
2023-01-17T00:32:14.882Z,4.44
2023-01-17T00:33:14.832Z,4.44
2023-01-17T00:34:14.822Z,4.42
2023-01-17T00:35:14.798Z,4.44
2023-01-17T00:36:17.806Z,4.42
2023-01-17T00:37:17.847Z,4.42
2023-01-17T00:38:14.760Z,4.41
2023-01-17T00:39:14.747Z,4.42
2023-01-17T00:40:14.736Z,4.42
2023-01-17T00:41:14.723Z,4.41
2023-01-17T00:42:14.710Z,4.41
2023-01-17T00:43:14.733Z,4.42
2023-01-17T00:44:14.679Z,4.41
2023-01-17T00:45:14.674Z,4.41
2023-01-17T00:46:14.722Z,4.41
2023-01-17T00:47:14.641Z,4.41
2023-01-17T00:48:14.625Z,4.40
2023-01-17T00:49:14.641Z,4.40
2023-01-17T00:50:14.593Z,4.41
2023-01-17T00:51:14.593Z,4.40
2023-01-17T00:52:14.562Z,4.41
2023-01-17T00:53:14.551Z,4.41
2023-01-17T00:54:14.536Z,4.41
2023-01-17T00:55:14.550Z,4.41
2023-01-17T00:56:17.509Z,4.41
2023-01-17T00:57:17.514Z,4.41
2023-01-17T00:58:22.010Z,4.41
2023-01-17T00:59:14.520Z,4.41
2023-01-17T01:00:14.482Z,4.40
2023-01-17T01:01:14.526Z,4.41
2023-01-17T01:02:14.439Z,4.40
2023-01-17T01:03:14.433Z,4.41
2023-01-17T01:04:14.400Z,4.42
2023-01-17T01:05:14.434Z,4.41
2023-01-17T01:06:14.365Z,4.41
2023-01-17T01:07:14.355Z,4.42
2023-01-17T01:08:14.337Z,4.42
2023-01-17T01:09:14.331Z,4.41
2023-01-17T01:10:14.375Z,4.41
2023-01-17T01:11:14.308Z,4.40
2023-01-17T01:12:14.285Z,4.40
2023-01-17T01:13:14.281Z,4.40
2023-01-17T01:14:14.267Z,4.40
2023-01-17T01:15:14.254Z,4.34
2023-01-17T01:16:17.352Z,4.32
2023-01-17T01:17:17.237Z,4.32
2023-01-17T01:18:14.205Z,4.32
2023-01-17T01:19:14.190Z,4.31
2023-01-17T01:20:14.191Z,4.32
2023-01-17T01:21:14.165Z,4.31
2023-01-17T01:22:14.171Z,4.31
2023-01-17T01:23:14.139Z,4.30
2023-01-17T01:24:14.138Z,4.32
2023-01-17T01:25:14.113Z,4.31
2023-01-17T01:26:14.091Z,4.31
2023-01-17T01:27:14.076Z,4.31
2023-01-17T01:28:14.057Z,4.31
2023-01-17T01:29:14.087Z,4.34
2023-01-17T01:30:14.055Z,4.34
2023-01-17T01:31:14.043Z,4.34
2023-01-17T01:32:13.999Z,4.35
2023-01-17T01:33:13.988Z,4.34
2023-01-17T01:34:13.978Z,4.34
2023-01-17T01:35:14.009Z,4.35
2023-01-17T01:36:17.008Z,4.37
2023-01-17T01:37:16.958Z,4.37
2023-01-17T01:38:13.910Z,4.37
2023-01-17T01:39:13.900Z,4.34
2023-01-17T01:40:13.889Z,4.34
2023-01-17T01:41:13.886Z,4.37
2023-01-17T01:42:13.897Z,4.37
2023-01-17T01:43:13.864Z,4.40
2023-01-17T01:44:13.861Z,4.40
2023-01-17T01:45:13.830Z,4.40
2023-01-17T01:46:13.816Z,4.40
2023-01-17T01:47:13.805Z,4.40
2023-01-17T01:48:13.951Z,4.40
2023-01-17T01:49:13.777Z,4.41
2023-01-17T01:50:13.750Z,4.42
2023-01-17T01:51:13.745Z,4.42
2023-01-17T01:52:13.724Z,4.41
2023-01-17T01:53:13.723Z,4.42
2023-01-17T01:54:13.731Z,4.42
2023-01-17T01:55:13.694Z,4.42
2023-01-17T01:56:16.671Z,4.44
2023-01-17T01:57:16.671Z,4.42
2023-01-17T01:58:13.635Z,4.42
2023-01-17T01:59:13.667Z,4.41
2023-01-17T02:00:13.636Z,4.42
2023-01-17T02:01:13.664Z,4.44
2023-01-17T02:02:13.590Z,4.44
2023-01-17T02:03:13.573Z,4.44
2023-01-17T02:04:13.627Z,4.42
2023-01-17T02:05:13.620Z,4.44
2023-01-17T02:06:13.537Z,4.42
2023-01-17T02:07:13.521Z,4.44
2023-01-17T02:08:13.508Z,4.42
2023-01-17T02:09:13.496Z,4.44
2023-01-17T02:10:13.477Z,4.44
2023-01-17T02:11:13.518Z,4.44
2023-01-17T02:12:13.450Z,4.42
2023-01-17T02:13:13.437Z,4.42
2023-01-17T02:14:13.419Z,4.44
2023-01-17T02:15:13.409Z,4.41
2023-01-17T02:16:16.517Z,4.37
2023-01-17T02:17:16.398Z,4.37
2023-01-17T02:18:13.362Z,4.35
2023-01-17T02:19:13.351Z,4.35
2023-01-17T02:20:13.347Z,4.34
2023-01-17T02:21:13.334Z,4.34
2023-01-17T02:22:13.336Z,4.34
2023-01-17T02:23:13.296Z,4.32
2023-01-17T02:24:13.277Z,4.31
2023-01-17T02:25:13.337Z,4.28
2023-01-17T02:26:13.251Z,4.24
2023-01-17T02:27:13.242Z,4.24
2023-01-17T02:28:13.221Z,4.23
2023-01-17T02:29:13.211Z,4.14
2023-01-17T02:30:13.206Z,4.17
2023-01-17T02:31:13.210Z,4.08
2023-01-17T02:32:13.172Z,4.06
2023-01-17T02:33:13.160Z,4.04
2023-01-17T02:34:13.131Z,3.99
2023-01-17T02:35:13.136Z,3.99
2023-01-17T02:36:16.130Z,3.95
2023-01-17T02:37:16.122Z,3.94
2023-01-17T02:38:13.094Z,3.92
2023-01-17T02:39:13.076Z,3.92
2023-01-17T02:40:13.109Z,3.94
2023-01-17T02:41:13.033Z,3.91
2023-01-17T02:42:13.041Z,3.91
2023-01-17T02:43:13.020Z,3.91
2023-01-17T02:44:12.999Z,3.86
2023-01-17T02:45:12.982Z,3.81
2023-01-17T02:46:13.026Z,3.80
2023-01-17T02:47:12.955Z,3.78
2023-01-17T02:48:12.948Z,3.76
2023-01-17T02:49:12.924Z,3.73
2023-01-17T02:50:12.973Z,3.70
2023-01-17T02:51:12.921Z,3.70
2023-01-17T02:52:12.896Z,3.69
2023-01-17T02:53:12.866Z,3.68
2023-01-17T02:54:12.856Z,3.69
2023-01-17T02:55:12.846Z,3.69
2023-01-17T02:56:15.868Z,3.69
2023-01-17T02:57:15.845Z,3.69
2023-01-17T02:58:12.810Z,3.68
2023-01-17T02:59:12.798Z,3.66
2023-01-17T03:00:12.780Z,3.65
2023-01-17T03:01:12.884Z,3.66
2023-01-17T03:02:12.901Z,3.66
2023-01-17T03:03:12.729Z,3.63
2023-01-17T03:04:12.719Z,3.73
2023-01-17T03:05:12.710Z,3.73
2023-01-17T03:06:12.774Z,3.74
2023-01-17T03:07:12.680Z,3.74
2023-01-17T03:08:12.663Z,3.74
2023-01-17T03:09:12.652Z,3.76
2023-01-17T03:10:12.662Z,3.77
2023-01-17T03:11:12.627Z,3.78
2023-01-17T03:12:12.651Z,3.80
2023-01-17T03:13:12.615Z,3.81
2023-01-17T03:14:12.600Z,3.83
2023-01-17T03:15:12.578Z,3.81
2023-01-17T03:16:15.591Z,3.83
2023-01-17T03:17:15.593Z,3.78
2023-01-17T03:18:12.537Z,3.80
2023-01-17T03:19:12.510Z,3.80
2023-01-17T03:20:12.539Z,3.80
2023-01-17T03:21:12.496Z,3.80
2023-01-17T03:22:12.474Z,3.81
2023-01-17T03:23:12.485Z,3.81
2023-01-17T03:24:12.444Z,3.84
2023-01-17T03:25:12.439Z,3.81
2023-01-17T03:26:12.428Z,3.84
2023-01-17T03:27:12.409Z,3.84
2023-01-17T03:28:12.435Z,3.83
2023-01-17T03:29:12.377Z,3.84
2023-01-17T03:30:12.359Z,3.86
2023-01-17T03:31:12.356Z,3.87
2023-01-17T03:32:12.367Z,3.88
2023-01-17T03:33:12.329Z,3.91
2023-01-17T03:34:12.371Z,3.91
2023-01-17T03:35:12.289Z,3.88
2023-01-17T03:36:15.278Z,3.92
2023-01-17T03:37:15.297Z,3.94
2023-01-17T03:38:12.260Z,3.94
2023-01-17T03:39:12.255Z,3.92
2023-01-17T03:40:12.240Z,3.92
2023-01-17T03:41:12.213Z,3.92
2023-01-17T03:42:12.193Z,3.94
2023-01-17T03:43:12.180Z,3.94
2023-01-17T03:44:12.240Z,3.92
2023-01-17T03:45:12.165Z,3.92
2023-01-17T03:46:12.174Z,3.92
2023-01-17T03:47:12.405Z,3.94
2023-01-17T03:48:12.117Z,3.92
2023-01-17T03:49:12.104Z,3.92
2023-01-17T03:50:12.131Z,3.95
2023-01-17T03:51:12.071Z,3.95
2023-01-17T03:52:12.053Z,3.95
2023-01-17T03:53:12.048Z,3.94
2023-01-17T03:54:12.034Z,3.96
2023-01-17T03:55:12.012Z,3.98
2023-01-17T03:56:15.067Z,3.96
2023-01-17T03:57:15.001Z,3.96
2023-01-17T03:58:11.966Z,3.95
2023-01-17T03:59:13.238Z,3.95
2023-01-17T04:00:11.934Z,3.94
2023-01-17T04:01:12.011Z,3.95
2023-01-17T04:02:12.049Z,3.92
2023-01-17T04:03:11.916Z,3.94
2023-01-17T04:04:11.885Z,3.94
2023-01-17T04:05:11.875Z,3.94
2023-01-17T04:06:11.862Z,3.94
2023-01-17T04:07:11.848Z,3.94
2023-01-17T04:08:11.876Z,3.94
2023-01-17T04:09:11.819Z,3.94
2023-01-17T04:10:11.808Z,3.94
2023-01-17T04:11:11.794Z,3.95
2023-01-17T04:12:11.776Z,3.94
2023-01-17T04:13:11.796Z,3.95
2023-01-17T04:14:11.749Z,3.96
2023-01-17T04:15:11.739Z,3.96
2023-01-17T04:16:14.752Z,3.95
2023-01-17T04:17:14.716Z,3.96
2023-01-17T04:18:11.720Z,3.98
2023-01-17T04:19:11.694Z,3.95
2023-01-17T04:20:11.701Z,3.94
2023-01-17T04:21:11.678Z,3.92
2023-01-17T04:22:11.628Z,3.91
2023-01-17T04:23:11.627Z,3.91
2023-01-17T04:24:11.598Z,3.88
2023-01-17T04:25:11.592Z,3.86
2023-01-17T04:26:11.601Z,3.80
2023-01-17T04:27:11.560Z,3.74
2023-01-17T04:28:11.549Z,3.74
2023-01-17T04:29:11.539Z,3.70
2023-01-17T04:30:11.511Z,3.65
2023-01-17T04:31:11.679Z,3.60
2023-01-17T04:32:11.489Z,3.55
2023-01-17T04:33:11.487Z,3.59
2023-01-17T04:34:11.462Z,3.60
2023-01-17T04:35:11.442Z,3.63
2023-01-17T04:36:14.515Z,3.62
2023-01-17T04:37:14.441Z,3.62
2023-01-17T04:38:11.404Z,3.62
2023-01-17T04:39:11.394Z,3.63
2023-01-17T04:40:11.383Z,3.62
2023-01-17T04:41:11.374Z,3.65
2023-01-17T04:42:11.373Z,3.66
2023-01-17T04:43:11.363Z,3.66
2023-01-17T04:44:11.322Z,3.68
2023-01-17T04:45:11.325Z,3.69
2023-01-17T04:46:11.357Z,3.70
2023-01-17T04:47:11.304Z,3.73
2023-01-17T04:48:11.276Z,3.73
2023-01-17T04:49:11.265Z,3.73
2023-01-17T04:50:11.238Z,3.77
2023-01-17T04:51:11.236Z,3.77
2023-01-17T04:52:11.236Z,3.74
2023-01-17T04:53:11.228Z,3.74
2023-01-17T04:54:11.208Z,3.70
2023-01-17T04:55:11.187Z,3.68
2023-01-17T04:56:14.167Z,3.62
2023-01-17T04:57:14.196Z,3.63
2023-01-17T04:58:11.151Z,3.60
2023-01-17T04:59:11.204Z,3.60
2023-01-17T05:00:11.128Z,3.59
2023-01-17T05:01:11.271Z,3.58
2023-01-17T05:02:11.137Z,3.58
2023-01-17T05:03:11.069Z,3.59
2023-01-17T05:04:11.058Z,3.59
2023-01-17T05:05:11.089Z,3.59
2023-01-17T05:06:11.047Z,3.60
2023-01-17T05:07:11.022Z,3.59
2023-01-17T05:08:11.018Z,3.58
2023-01-17T05:09:11.011Z,3.60
2023-01-17T05:10:11.003Z,3.59
2023-01-17T05:11:10.995Z,3.59
2023-01-17T05:12:10.947Z,3.59
2023-01-17T05:13:10.944Z,3.60
2023-01-17T05:14:10.969Z,3.60
2023-01-17T05:15:10.991Z,3.53
2023-01-17T05:16:13.923Z,3.62
2023-01-17T05:17:13.912Z,3.62
2023-01-17T05:18:10.907Z,3.58
2023-01-17T05:19:10.916Z,3.60
2023-01-17T05:20:10.885Z,3.62
2023-01-17T05:21:10.832Z,3.63
2023-01-17T05:22:10.894Z,3.63
2023-01-17T05:23:10.831Z,3.62
2023-01-17T05:24:10.802Z,3.62
2023-01-17T05:25:10.792Z,3.63
2023-01-17T05:26:10.777Z,3.62
2023-01-17T05:27:10.769Z,3.62
2023-01-17T05:28:10.787Z,3.56
2023-01-17T05:29:10.732Z,3.59
2023-01-17T05:30:10.723Z,3.59
2023-01-17T05:31:10.769Z,3.59
2023-01-17T05:32:10.697Z,3.60
2023-01-17T05:33:10.691Z,3.58
2023-01-17T05:34:10.688Z,3.56
2023-01-17T05:35:10.658Z,3.51
2023-01-17T05:36:13.638Z,3.55
2023-01-17T05:37:13.641Z,3.55
2023-01-17T05:38:10.611Z,3.55
2023-01-17T05:39:10.626Z,3.53
2023-01-17T05:40:10.596Z,3.55
2023-01-17T05:41:10.578Z,3.56
2023-01-17T05:42:10.569Z,3.58
2023-01-17T05:43:10.592Z,3.59
2023-01-17T05:44:10.569Z,3.59
2023-01-17T05:45:10.530Z,3.62
2023-01-17T05:46:10.541Z,3.60
2023-01-17T05:47:10.508Z,3.60
2023-01-17T05:48:10.478Z,3.62
2023-01-17T05:49:10.540Z,3.60
2023-01-17T05:50:10.456Z,3.62
2023-01-17T05:51:10.449Z,3.58
2023-01-17T05:52:10.432Z,3.62
2023-01-17T05:53:10.408Z,3.62
2023-01-17T05:54:10.435Z,3.60
2023-01-17T05:55:10.433Z,3.62
2023-01-17T05:56:13.370Z,3.62
2023-01-17T05:57:13.396Z,3.63
2023-01-17T05:58:10.362Z,3.65
2023-01-17T05:59:12.557Z,3.60
2023-01-17T06:00:10.329Z,3.65
2023-01-17T06:01:10.474Z,3.65
2023-01-17T06:02:10.297Z,3.65
2023-01-17T06:03:10.282Z,3.66
2023-01-17T06:04:10.262Z,3.66
2023-01-17T06:05:10.261Z,3.66
2023-01-17T06:06:10.241Z,3.66
2023-01-17T06:07:10.262Z,3.66
2023-01-17T06:08:10.212Z,3.66
2023-01-17T06:09:10.204Z,3.65
2023-01-17T06:10:10.202Z,3.65
2023-01-17T06:11:10.204Z,3.62
2023-01-17T06:12:10.184Z,3.60
2023-01-17T06:13:10.154Z,3.59
2023-01-17T06:14:10.135Z,3.58
2023-01-17T06:15:10.136Z,3.59
2023-01-17T06:16:13.318Z,3.59
2023-01-17T06:17:13.124Z,3.60
2023-01-17T06:18:10.092Z,3.59
2023-01-17T06:19:10.074Z,3.60
2023-01-17T06:20:10.085Z,3.59
2023-01-17T06:21:10.093Z,3.60
2023-01-17T06:22:10.088Z,3.60
2023-01-17T06:23:10.030Z,3.59
2023-01-17T06:24:10.005Z,3.60
2023-01-17T06:25:10.028Z,3.59
2023-01-17T06:26:09.979Z,3.59
2023-01-17T06:27:09.956Z,3.58
2023-01-17T06:28:09.979Z,3.56
2023-01-17T06:29:09.949Z,3.53
2023-01-17T06:30:10.007Z,3.50
2023-01-17T06:31:09.936Z,3.50
2023-01-17T06:32:09.900Z,3.50
2023-01-17T06:33:09.896Z,3.48
2023-01-17T06:34:09.885Z,3.50
2023-01-17T06:35:09.857Z,3.48
2023-01-17T06:36:12.870Z,3.50
2023-01-17T06:37:12.856Z,3.47
2023-01-17T06:38:09.832Z,3.45
2023-01-17T06:39:09.806Z,3.42
2023-01-17T06:40:09.825Z,3.36
2023-01-17T06:41:09.839Z,3.34
2023-01-17T06:42:09.766Z,3.31
2023-01-17T06:43:09.778Z,3.28
2023-01-17T06:44:09.748Z,3.26
2023-01-17T06:45:09.728Z,3.25
2023-01-17T06:46:09.800Z,3.23
2023-01-17T06:47:09.765Z,3.21
2023-01-17T06:48:09.689Z,3.19
2023-01-17T06:49:09.675Z,3.21
2023-01-17T06:50:09.663Z,3.19
2023-01-17T06:51:09.646Z,3.18
2023-01-17T06:52:09.640Z,3.19
2023-01-17T06:53:09.650Z,3.18
2023-01-17T06:54:09.609Z,3.22
2023-01-17T06:55:09.598Z,3.22
2023-01-17T06:56:12.581Z,3.25
2023-01-17T06:57:12.581Z,3.25
2023-01-17T06:58:09.661Z,3.23
2023-01-17T06:59:09.553Z,3.21
2023-01-17T07:00:09.532Z,3.18
2023-01-17T07:01:09.720Z,3.08
2023-01-17T07:02:09.519Z,3.04
2023-01-17T07:03:09.562Z,3.01
2023-01-17T07:04:09.564Z,3.00
2023-01-17T07:05:09.480Z,2.93
2023-01-17T07:06:09.534Z,3.00
2023-01-17T07:07:09.452Z,2.97
2023-01-17T07:08:09.424Z,2.98
2023-01-17T07:09:09.461Z,2.98
2023-01-17T07:10:09.419Z,2.95
2023-01-17T07:11:09.395Z,2.97
2023-01-17T07:12:09.377Z,2.97
2023-01-17T07:13:09.370Z,2.97
2023-01-17T07:14:09.345Z,2.97
2023-01-17T07:15:09.378Z,2.97
2023-01-17T07:16:12.379Z,2.93
2023-01-17T07:17:12.328Z,2.93
2023-01-17T07:18:09.316Z,2.90
2023-01-17T07:19:09.326Z,2.87
2023-01-17T07:20:09.290Z,2.85
2023-01-17T07:21:09.269Z,2.82
2023-01-17T07:22:09.245Z,2.80
2023-01-17T07:23:09.233Z,2.79
2023-01-17T07:24:09.274Z,2.77
2023-01-17T07:25:09.213Z,2.77
2023-01-17T07:26:09.238Z,2.75
2023-01-17T07:27:09.180Z,2.74
2023-01-17T07:28:09.175Z,2.72
2023-01-17T07:29:09.149Z,2.72
2023-01-17T07:30:09.153Z,2.71
2023-01-17T07:31:09.170Z,2.68
2023-01-17T07:32:09.109Z,2.68
2023-01-17T07:33:09.091Z,2.62
2023-01-17T07:34:09.091Z,2.60
2023-01-17T07:35:09.071Z,2.57
2023-01-17T07:36:12.096Z,2.53
2023-01-17T07:37:14.951Z,2.53
2023-01-17T07:38:09.050Z,2.47
2023-01-17T07:39:09.024Z,2.47
2023-01-17T07:40:09.043Z,2.44
2023-01-17T07:41:11.009Z,2.43
2023-01-17T07:42:08.985Z,2.43
2023-01-17T07:43:08.961Z,2.43
2023-01-17T07:44:08.951Z,2.39
2023-01-17T07:45:09.005Z,2.39
2023-01-17T07:46:08.923Z,2.39
2023-01-17T07:47:08.911Z,2.38
2023-01-17T07:48:08.903Z,2.36
2023-01-17T07:49:08.881Z,2.38
2023-01-17T07:50:08.863Z,2.42
2023-01-17T07:51:08.886Z,2.42
2023-01-17T07:52:08.847Z,2.44
2023-01-17T07:53:08.843Z,2.44
2023-01-17T07:54:08.823Z,2.51
2023-01-17T07:55:08.805Z,2.56
2023-01-17T07:56:11.857Z,2.56
2023-01-17T07:57:11.786Z,2.60
2023-01-17T07:58:08.791Z,2.60
2023-01-17T07:59:08.745Z,2.62
2023-01-17T08:00:08.757Z,2.64
2023-01-17T08:01:08.884Z,2.64
2023-01-17T08:02:08.706Z,2.67
2023-01-17T08:03:08.731Z,2.68
2023-01-17T08:04:08.742Z,2.69
2023-01-17T08:05:08.676Z,2.71
2023-01-17T08:06:08.657Z,2.69
2023-01-17T08:07:08.641Z,2.69
2023-01-17T08:08:08.628Z,2.68
2023-01-17T08:09:08.647Z,2.69
2023-01-17T08:10:08.599Z,2.65
2023-01-17T08:11:08.588Z,2.64
2023-01-17T08:12:08.577Z,2.62
2023-01-17T08:13:08.556Z,2.61
2023-01-17T08:14:08.622Z,2.60
2023-01-17T08:15:08.556Z,2.57
2023-01-17T08:16:11.545Z,2.56
2023-01-17T08:17:11.519Z,2.60
2023-01-17T08:18:08.494Z,2.62
2023-01-17T08:19:08.484Z,2.61
2023-01-17T08:20:08.508Z,2.56
2023-01-17T08:21:08.448Z,2.61
2023-01-17T08:22:08.452Z,2.64
2023-01-17T08:23:08.424Z,2.62
2023-01-17T08:24:08.417Z,2.64
2023-01-17T08:25:08.431Z,2.64
2023-01-17T08:26:08.426Z,2.62
2023-01-17T08:27:08.371Z,2.62
2023-01-17T08:28:08.361Z,2.61
2023-01-17T08:29:08.347Z,2.62
2023-01-17T08:30:08.332Z,2.64
2023-01-17T08:31:08.383Z,2.64
2023-01-17T08:32:08.336Z,2.60
2023-01-17T08:33:08.291Z,2.57
2023-01-17T08:34:08.283Z,2.53
2023-01-17T08:35:08.273Z,2.54
2023-01-17T08:36:11.329Z,2.53
2023-01-17T08:37:11.263Z,2.49
2023-01-17T08:38:08.232Z,2.49
2023-01-17T08:39:08.214Z,2.47
2023-01-17T08:40:08.200Z,2.47
2023-01-17T08:41:08.200Z,2.43
2023-01-17T08:42:08.206Z,2.44
2023-01-17T08:43:08.164Z,2.43
2023-01-17T08:44:08.169Z,2.42
2023-01-17T08:45:08.137Z,2.46
2023-01-17T08:46:08.152Z,2.46
2023-01-17T08:47:08.144Z,2.44
2023-01-17T08:48:08.095Z,2.46
2023-01-17T08:49:08.085Z,2.43
2023-01-17T08:50:08.081Z,2.43
2023-01-17T08:51:08.060Z,2.43
2023-01-17T08:52:08.086Z,2.43
2023-01-17T08:53:08.027Z,2.42
2023-01-17T08:54:08.024Z,2.44
2023-01-17T08:55:07.997Z,2.46
2023-01-17T08:56:10.995Z,2.51
2023-01-17T08:57:11.016Z,2.56
2023-01-17T08:58:08.001Z,2.60
2023-01-17T08:59:07.966Z,2.61
2023-01-17T09:00:07.943Z,2.65
2023-01-17T09:01:08.030Z,2.68
2023-01-17T09:02:08.063Z,2.75
2023-01-17T09:03:07.896Z,2.83
2023-01-17T09:04:07.899Z,2.89
2023-01-17T09:05:07.868Z,2.92
2023-01-17T09:06:07.866Z,2.97
2023-01-17T09:07:07.848Z,2.98
2023-01-17T09:08:07.858Z,3.00
2023-01-17T09:09:07.824Z,3.01
2023-01-17T09:10:07.837Z,3.03
2023-01-17T09:11:08.486Z,3.03
2023-01-17T09:12:07.795Z,3.01
2023-01-17T09:13:07.773Z,2.98
2023-01-17T09:14:07.825Z,2.98
2023-01-17T09:15:07.741Z,2.97
2023-01-17T09:16:10.775Z,2.98
2023-01-17T09:17:10.727Z,2.97
2023-01-17T09:18:07.700Z,2.92
2023-01-17T09:19:07.698Z,2.97
2023-01-17T09:20:07.707Z,2.98
2023-01-17T09:21:07.669Z,2.93
2023-01-17T09:22:07.643Z,2.95
2023-01-17T09:23:07.637Z,2.92
2023-01-17T09:24:07.724Z,2.92
2023-01-17T09:25:07.642Z,2.93
2023-01-17T09:26:07.606Z,2.93
2023-01-17T09:27:07.582Z,2.93
2023-01-17T09:28:07.573Z,2.95
2023-01-17T09:29:07.582Z,2.95
2023-01-17T09:30:07.556Z,2.95
2023-01-17T09:31:07.617Z,2.95
2023-01-17T09:32:07.514Z,2.97
2023-01-17T09:33:07.509Z,2.98
2023-01-17T09:34:07.510Z,2.98
2023-01-17T09:35:07.489Z,2.98
2023-01-17T09:36:10.503Z,2.97
2023-01-17T09:37:10.490Z,3.01
2023-01-17T09:38:07.439Z,3.00
2023-01-17T09:39:07.431Z,3.00
2023-01-17T09:40:07.470Z,3.03
2023-01-17T09:41:07.402Z,3.04
2023-01-17T09:42:07.384Z,3.05
2023-01-17T09:43:07.379Z,3.05
2023-01-17T09:44:07.383Z,3.05
2023-01-17T09:45:07.363Z,3.07
2023-01-17T09:46:07.422Z,3.08
2023-01-17T09:47:07.417Z,3.08
2023-01-17T09:48:07.308Z,3.11
2023-01-17T09:49:07.322Z,3.14
2023-01-17T09:50:07.286Z,3.18
2023-01-17T09:51:07.272Z,3.21
2023-01-17T09:52:07.277Z,3.18
2023-01-17T09:53:07.240Z,3.16
2023-01-17T09:54:07.246Z,3.16
2023-01-17T09:55:08.172Z,3.11
2023-01-17T09:56:10.199Z,3.11
2023-01-17T09:57:10.250Z,3.11
2023-01-17T09:58:07.181Z,3.11
2023-01-17T09:59:07.161Z,3.08
2023-01-17T10:00:07.168Z,3.07
2023-01-17T10:01:07.291Z,3.01
2023-01-17T10:02:07.488Z,3.00
2023-01-17T10:03:07.317Z,2.98
2023-01-17T10:04:07.150Z,2.95
2023-01-17T10:05:07.215Z,2.93
2023-01-17T10:06:07.073Z,2.92
2023-01-17T10:07:07.097Z,2.92
2023-01-17T10:08:07.070Z,2.95
2023-01-17T10:09:07.040Z,3.01
2023-01-17T10:10:07.027Z,3.05
2023-01-17T10:11:07.001Z,3.14
2023-01-17T10:12:06.995Z,3.18
2023-01-17T10:13:07.031Z,3.23
2023-01-17T10:14:06.973Z,3.32
2023-01-17T10:15:06.965Z,3.45
2023-01-17T10:16:09.943Z,3.48
2023-01-17T10:17:09.941Z,3.50
2023-01-17T10:18:06.941Z,3.48
2023-01-17T10:19:06.964Z,3.45
2023-01-17T10:20:06.883Z,3.47
2023-01-17T10:21:06.874Z,3.44
2023-01-17T10:22:06.864Z,3.42
2023-01-17T10:23:06.857Z,3.47
2023-01-17T10:24:06.881Z,3.51
2023-01-17T10:25:06.814Z,3.56
2023-01-17T10:26:06.824Z,3.59
2023-01-17T10:27:06.794Z,3.63
2023-01-17T10:28:06.792Z,3.66
2023-01-17T10:29:06.764Z,3.70
2023-01-17T10:30:06.779Z,3.73
2023-01-17T10:31:06.772Z,3.70
2023-01-17T10:32:06.841Z,3.69
2023-01-17T10:33:06.706Z,3.69
2023-01-17T10:34:06.739Z,3.73
2023-01-17T10:35:06.699Z,3.66
2023-01-17T10:36:09.686Z,3.68
2023-01-17T10:37:09.656Z,3.69
2023-01-17T10:38:06.636Z,3.65
2023-01-17T10:39:06.636Z,3.66
2023-01-17T10:40:06.640Z,3.63
2023-01-17T10:41:06.596Z,3.63
2023-01-17T10:42:06.590Z,3.69
2023-01-17T10:43:06.567Z,3.73
2023-01-17T10:44:06.724Z,3.78
2023-01-17T10:45:06.589Z,3.80
2023-01-17T10:46:06.544Z,3.83
2023-01-17T10:47:06.518Z,3.83
2023-01-17T10:48:06.510Z,3.83
2023-01-17T10:49:06.489Z,3.83
2023-01-17T10:50:06.477Z,3.84
2023-01-17T10:51:06.482Z,3.88
2023-01-17T10:52:06.458Z,3.91
2023-01-17T10:53:06.436Z,3.92
2023-01-17T10:54:06.418Z,3.92
2023-01-17T10:55:06.402Z,3.88
2023-01-17T10:56:09.424Z,3.91
2023-01-17T10:57:09.395Z,3.95
2023-01-17T10:58:06.393Z,3.98
2023-01-17T10:59:06.351Z,3.99
2023-01-17T11:00:06.343Z,4.02
2023-01-17T11:01:06.440Z,4.04
2023-01-17T11:02:06.489Z,4.08
2023-01-17T11:03:06.389Z,4.05
2023-01-17T11:04:06.294Z,4.13
2023-01-17T11:05:06.260Z,4.16
2023-01-17T11:06:06.243Z,4.14
2023-01-17T11:07:06.234Z,4.17
2023-01-17T11:08:06.288Z,4.16
2023-01-17T11:09:06.202Z,4.20
2023-01-17T11:10:06.203Z,4.20
2023-01-17T11:11:06.180Z,4.22
2023-01-17T11:12:06.164Z,4.20
2023-01-17T11:13:06.157Z,4.22
2023-01-17T11:14:06.157Z,4.22
2023-01-17T11:15:06.131Z,4.22
2023-01-17T11:16:09.154Z,4.22
2023-01-17T11:17:09.113Z,4.20
2023-01-17T11:18:06.133Z,4.22
2023-01-17T11:19:06.074Z,4.24
2023-01-17T11:20:06.111Z,4.30
2023-01-17T11:21:06.108Z,4.34
2023-01-17T11:22:06.117Z,4.34
2023-01-17T11:23:06.042Z,4.35
2023-01-17T11:24:06.080Z,4.40
2023-01-17T11:25:06.076Z,4.44
2023-01-17T11:26:06.121Z,4.49
2023-01-17T11:27:05.987Z,4.48
2023-01-17T11:28:06.049Z,4.50
2023-01-17T11:29:06.027Z,4.53
2023-01-17T11:30:05.948Z,4.56
2023-01-17T11:31:05.982Z,4.59
2023-01-17T11:32:05.918Z,4.66
2023-01-17T11:33:06.022Z,4.74
2023-01-17T11:34:05.901Z,4.78
2023-01-17T11:35:05.849Z,4.89
2023-01-17T11:36:08.933Z,4.86
2023-01-17T11:37:08.898Z,4.84
2023-01-17T11:38:05.851Z,4.90
2023-01-17T11:39:05.799Z,4.96
2023-01-17T11:40:05.789Z,4.96
2023-01-17T11:41:05.874Z,4.96
2023-01-17T11:42:05.759Z,4.96
2023-01-17T11:43:05.750Z,4.94
2023-01-17T11:44:05.781Z,4.96
2023-01-17T11:45:05.720Z,4.94
2023-01-17T11:46:05.820Z,4.93
2023-01-17T11:47:05.732Z,4.92
2023-01-17T11:48:05.679Z,4.82
2023-01-17T11:49:05.675Z,4.73
2023-01-17T11:50:05.655Z,4.67
2023-01-17T11:51:05.643Z,4.66
2023-01-17T11:52:05.643Z,4.60
2023-01-17T11:53:06.309Z,4.59
2023-01-17T11:54:05.596Z,4.66
2023-01-17T11:55:05.632Z,4.68
2023-01-17T11:56:08.569Z,4.71
2023-01-17T11:57:08.580Z,4.68
2023-01-17T11:58:05.536Z,4.62
2023-01-17T11:59:05.533Z,4.53
2023-01-17T12:00:05.518Z,4.52
2023-01-17T12:01:05.550Z,4.53
2023-01-17T12:02:05.516Z,4.50
2023-01-17T12:03:05.475Z,4.55
2023-01-17T12:04:05.480Z,4.60
2023-01-17T12:05:05.471Z,4.66
2023-01-17T12:06:05.426Z,4.68
2023-01-17T12:07:05.447Z,4.71
2023-01-17T12:08:05.397Z,4.77
2023-01-17T12:09:05.395Z,4.68
2023-01-17T12:10:05.403Z,4.70
2023-01-17T12:11:05.362Z,4.62
2023-01-17T12:12:05.391Z,4.55
2023-01-17T12:13:05.349Z,4.53
2023-01-17T12:14:05.322Z,4.52
2023-01-17T12:15:05.304Z,4.55
2023-01-17T12:16:08.346Z,4.58
2023-01-17T12:17:08.327Z,4.66
2023-01-17T12:18:05.256Z,4.75
2023-01-17T12:19:05.280Z,4.82
2023-01-17T12:20:05.331Z,4.90
2023-01-17T12:21:05.229Z,4.96
2023-01-17T12:22:05.208Z,4.90
2023-01-17T12:23:05.196Z,4.93
2023-01-17T12:24:05.211Z,5.00
2023-01-17T12:25:05.162Z,5.07
2023-01-17T12:26:05.157Z,5.08
2023-01-17T12:27:05.139Z,5.08
2023-01-17T12:28:05.129Z,5.08
2023-01-17T12:29:05.130Z,5.02
2023-01-17T12:30:05.102Z,5.00
2023-01-17T12:31:05.129Z,4.96
2023-01-17T12:32:05.124Z,4.96
2023-01-17T12:33:05.060Z,5.07
2023-01-17T12:34:07.139Z,5.07
2023-01-17T12:35:05.041Z,5.11
2023-01-17T12:36:08.036Z,5.08
2023-01-17T12:37:08.013Z,4.99
2023-01-17T12:38:05.563Z,4.94
2023-01-17T12:39:04.964Z,4.87
2023-01-17T12:40:04.965Z,4.86
2023-01-17T12:41:04.932Z,4.90
2023-01-17T12:42:04.942Z,4.94
2023-01-17T12:43:04.974Z,5.00
2023-01-17T12:44:04.898Z,5.07
2023-01-17T12:45:04.976Z,5.05
2023-01-17T12:46:04.873Z,5.07
2023-01-17T12:47:04.854Z,5.04
2023-01-17T12:48:04.834Z,5.07
2023-01-17T12:49:04.845Z,5.07
2023-01-17T12:50:04.835Z,4.99
2023-01-17T12:51:04.798Z,4.96
2023-01-17T12:52:04.776Z,4.99
2023-01-17T12:53:04.775Z,4.97
2023-01-17T12:54:04.744Z,5.02
2023-01-17T12:55:04.797Z,5.02
2023-01-17T12:56:07.716Z,4.94
2023-01-17T12:57:07.730Z,4.92
2023-01-17T12:58:04.696Z,4.90
2023-01-17T12:59:04.676Z,4.87
2023-01-17T13:00:04.704Z,4.80
2023-01-17T13:01:04.841Z,4.82
2023-01-17T13:02:04.644Z,4.86
2023-01-17T13:03:04.621Z,4.89
2023-01-17T13:04:04.612Z,4.90
2023-01-17T13:05:04.589Z,4.90
2023-01-17T13:06:04.628Z,4.86
2023-01-17T13:07:04.568Z,4.86
2023-01-17T13:08:04.558Z,4.84
2023-01-17T13:09:04.541Z,4.80
2023-01-17T13:10:04.521Z,4.77
2023-01-17T13:11:04.537Z,4.78
2023-01-17T13:12:04.559Z,4.74
2023-01-17T13:13:04.479Z,4.77
2023-01-17T13:14:04.462Z,4.75
2023-01-17T13:15:04.502Z,4.71
2023-01-17T13:16:07.503Z,4.60
2023-01-17T13:17:07.473Z,4.66
2023-01-17T13:18:04.413Z,4.70